Time;durP1;ratioP1;P1;durP2;ratioP2;P2;SDS_P1;SDS_P2;PMS_P1;PMS_P2;Temp;Humidity;BMP_temperature;BMP_pressure;BME280_temperature;BME280_humidity;BME280_pressure;Samples;Min_cycle;Max_cycle;Signal;HPM_P1;HPM_P2
2022/10/26 00:22:07;;;;;;;10.17;8.10;;;10.70;99.90;;;;;;1693084;22;20468;-81
2022/10/26 00:24:34;;;;;;;11.90;8.60;;;10.70;99.90;;;;;;5045970;28;20589;-81
2022/10/26 00:27:01;;;;;;;12.93;7.97;;;10.70;99.90;;;;;;5045970;28;20539;-81
2022/10/26 00:29:27;;;;;;;12.47;9.10;;;10.70;99.90;;;;;;5047081;28;20409;-82
2022/10/26 00:31:55;;;;;;;11.00;8.87;;;10.70;99.90;;;;;;5046069;28;20501;-81
2022/10/26 00:34:22;;;;;;;13.07;9.53;;;10.60;99.90;;;;;;5046608;28;20424;-82
2022/10/26 00:36:49;;;;;;;13.13;9.20;;;10.60;99.90;;;;;;5046059;28;20448;-82
2022/10/26 00:39:17;;;;;;;11.37;9.43;;;10.60;99.90;;;;;;5047057;28;20447;-82
2022/10/26 00:41:43;;;;;;;17.80;9.73;;;10.80;99.90;;;;;;5049041;28;20454;-82
2022/10/26 00:44:46;;;;;;;11.90;9.27;;;10.60;99.90;;;;;;5047782;28;20451;-82
2022/10/26 00:47:18;;;;;;;16.33;9.10;;;10.60;99.90;;;;;;5046800;28;20440;-82
2022/10/26 00:49:47;;;;;;;14.03;9.93;;;10.60;99.90;;;;;;5046349;28;20409;-82
2022/10/26 00:52:15;;;;;;;11.80;8.83;;;10.50;99.90;;;;;;5046228;28;20462;-82
2022/10/26 00:54:43;;;;;;;12.40;8.57;;;10.50;99.90;;;;;;5046269;28;20413;-82
2022/10/26 00:57:11;;;;;;;14.40;10.23;;;10.20;99.90;;;;;;5046820;28;20446;-81
2022/10/26 00:59:39;;;;;;;12.70;9.30;;;10.50;99.90;;;;;;5045873;28;20503;-82
2022/10/26 01:02:07;;;;;;;15.40;9.20;;;10.40;99.90;;;;;;5047911;28;20494;-79
2022/10/26 01:04:35;;;;;;;14.67;9.00;;;10.30;99.90;;;;;;5047645;28;20417;-81
2022/10/26 01:07:05;;;;;;;15.77;8.57;;;10.30;99.90;;;;;;5046446;28;20868;-80
2022/10/26 01:09:32;;;;;;;14.07;8.30;;;10.10;99.90;;;;;;5045461;28;20417;-80
2022/10/26 01:12:00;;;;;;;11.90;8.37;;;10.10;99.90;;;;;;5045504;28;20433;-80
2022/10/26 01:14:28;;;;;;;9.70;8.37;;;10.10;99.90;;;;;;5045924;28;20447;-79
2022/10/26 01:17:05;;;;;;;11.30;8.53;;;10.00;99.90;;;;;;5044919;28;20447;-80
2022/10/26 01:20:04;;;;;;;11.30;9.47;;;10.00;99.90;;;;;;5045620;28;20485;-82
2022/10/26 01:22:38;;;;;;;15.33;10.10;;;9.90;99.90;;;;;;5045445;28;20457;-80
2022/10/26 01:25:15;;;;;;;17.63;10.80;;;9.90;99.90;;;;;;5045484;28;20454;-79
2022/10/26 01:27:45;;;;;;;13.33;9.33;;;9.90;99.90;;;;;;5039962;28;20954;-80
2022/10/26 01:30:20;;;;;;;14.17;9.60;;;9.90;99.90;;;;;;5038005;28;20450;-80
2022/10/26 01:33:00;;;;;;;14.53;10.50;;;9.80;99.90;;;;;;5038610;28;20456;-82
2022/10/26 01:35:32;;;;;;;10.80;9.20;;;9.80;99.90;;;;;;5043817;28;20493;-80
2022/10/26 01:38:05;;;;;;;12.90;10.03;;;9.80;99.90;;;;;;5044189;28;20420;-81
2022/10/26 01:40:37;;;;;;;13.53;10.37;;;9.80;99.90;;;;;;5040419;28;20792;-81
2022/10/26 01:43:08;;;;;;;16.70;9.27;;;9.90;99.90;;;;;;5044692;28;20458;-80
2022/10/26 01:45:39;;;;;;;13.23;9.47;;;9.90;99.90;;;;;;5035525;28;20498;-80
2022/10/26 01:48:08;;;;;;;10.80;9.37;;;9.90;99.90;;;;;;5039209;28;20409;-81
2022/10/26 01:50:35;;;;;;;11.90;9.40;;;9.90;99.90;;;;;;5040436;28;20937;-80
2022/10/26 01:53:02;;;;;;;16.60;8.73;;;9.80;99.90;;;;;;5040229;28;20481;-81
2022/10/26 01:55:50;;;;;;;9.77;8.67;;;9.60;99.90;;;;;;5040731;28;20413;-81
2022/10/26 01:58:44;;;;;;;13.20;9.77;;;9.70;99.90;;;;;;5035461;28;20867;-81
2022/10/26 02:01:32;;;;;;;16.57;10.37;;;9.90;99.90;;;;;;5040297;28;20427;-81
2022/10/26 02:04:10;;;;;;;14.10;9.57;;;9.70;99.90;;;;;;5040106;28;20420;-79
2022/10/26 02:06:46;;;;;;;14.93;8.23;;;9.70;99.90;;;;;;5040276;28;20463;-81
2022/10/26 02:09:23;;;;;;;11.20;8.43;;;9.60;99.90;;;;;;5040641;28;20461;-80
2022/10/26 02:11:53;;;;;;;11.80;9.40;;;9.60;99.90;;;;;;5040366;28;20447;-81
2022/10/26 02:14:29;;;;;;;11.50;9.33;;;9.60;99.90;;;;;;5040299;28;20446;-81
2022/10/26 02:17:02;;;;;;;15.27;8.20;;;9.60;99.90;;;;;;5040358;28;20488;-81
2022/10/26 02:19:36;;;;;;;11.40;9.13;;;9.70;99.90;;;;;;5040759;28;20438;-80
2022/10/26 02:22:09;;;;;;;11.10;8.43;;;9.70;99.90;;;;;;5039995;28;20477;-80
2022/10/26 02:24:37;;;;;;;13.93;9.07;;;9.70;99.90;;;;;;5040776;28;20442;-81
2022/10/26 02:27:07;;;;;;;16.60;9.73;;;9.70;99.90;;;;;;5039927;28;20486;-81
2022/10/26 02:29:35;;;;;;;17.67;9.67;;;9.70;99.90;;;;;;5040775;28;20474;-82
2022/10/26 02:32:05;;;;;;;14.07;9.53;;;9.70;99.90;;;;;;5049305;28;20466;-79
2022/10/26 02:34:34;;;;;;;13.87;9.20;;;9.60;99.90;;;;;;5053332;28;20502;-79
2022/10/26 02:37:02;;;;;;;15.10;9.50;;;9.60;99.90;;;;;;5051771;28;20435;-80
2022/10/26 02:39:33;;;;;;;12.50;8.73;;;9.70;99.90;;;;;;5049515;28;20438;-79
2022/10/26 02:42:02;;;;;;;11.47;8.63;;;9.70;99.90;;;;;;5053098;28;20996;-79
2022/10/26 02:44:32;;;;;;;13.07;9.30;;;9.70;99.90;;;;;;5052449;28;20443;-79
2022/10/26 02:46:59;;;;;;;14.17;8.70;;;9.70;99.90;;;;;;5052302;28;20478;-79
2022/10/26 02:49:28;;;;;;;12.30;9.27;;;9.70;99.90;;;;;;5051178;28;20431;-81
2022/10/26 02:52:02;;;;;;;14.80;9.70;;;9.70;99.90;;;;;;5049646;28;20477;-81
2022/10/26 02:54:33;;;;;;;10.53;8.60;;;9.70;99.90;;;;;;5050653;28;20441;-82
2022/10/26 02:57:05;;;;;;;10.33;8.03;;;9.70;99.90;;;;;;5049573;28;20457;-80
2022/10/26 02:59:36;;;;;;;12.57;8.13;;;9.70;99.90;;;;;;5050196;28;20438;-78
2022/10/26 03:02:04;;;;;;;15.13;9.00;;;9.80;99.90;;;;;;5050997;28;20474;-80
2022/10/26 03:04:33;;;;;;;9.67;8.60;;;9.70;99.90;;;;;;5049146;28;20440;-81
2022/10/26 03:07:01;;;;;;;14.50;9.33;;;9.70;99.90;;;;;;5050446;28;20544;-81
2022/10/26 03:09:28;;;;;;;13.80;9.00;;;9.70;99.90;;;;;;5051422;28;20409;-79
2022/10/26 03:11:55;;;;;;;11.87;8.87;;;;;;;;;;5051032;28;20474;-80
2022/10/26 03:14:22;;;;;;;11.30;7.60;;;9.70;99.90;;;;;;5050066;28;20451;-82
2022/10/26 03:16:48;;;;;;;11.30;7.53;;;9.60;99.90;;;;;;5049674;28;20454;-82
2022/10/26 03:19:15;;;;;;;11.60;8.33;;;9.60;99.90;;;;;;5050521;28;20461;-81
2022/10/26 03:21:43;;;;;;;12.47;8.57;;;9.50;99.90;;;;;;5050018;28;20432;-79
2022/10/26 03:24:10;;;;;;;9.50;8.33;;;9.50;99.90;;;;;;5059047;28;20437;-79
2022/10/26 03:26:36;;;;;;;9.67;8.10;;;9.50;99.90;;;;;;5059898;28;20892;-80
2022/10/26 03:29:04;;;;;;;13.07;7.90;;;9.50;99.90;;;;;;5054731;28;20782;-81
2022/10/26 03:31:30;;;;;;;11.37;7.57;;;9.80;99.90;;;;;;5048874;28;20421;-81
2022/10/26 03:33:57;;;;;;;10.80;7.50;;;9.50;99.90;;;;;;5046144;28;20451;-81
2022/10/26 03:36:24;;;;;;;10.07;7.30;;;9.50;99.90;;;;;;5047796;28;20970;-82
2022/10/26 03:38:52;;;;;;;12.73;7.20;;;9.50;99.90;;;;;;5047754;28;20525;-82
2022/10/26 03:41:18;;;;;;;9.67;7.40;;;9.50;99.90;;;;;;5049548;28;20521;-80
2022/10/26 03:43:45;;;;;;;9.23;7.27;;;9.50;99.90;;;;;;5048555;28;20466;-81
2022/10/26 03:46:12;;;;;;;11.00;8.00;;;9.50;99.90;;;;;;5047565;28;20522;-81
2022/10/26 03:48:39;;;;;;;10.37;8.63;;;;;;;;;;5047725;28;20628;-80
2022/10/26 03:51:06;;;;;;;9.53;8.00;;;9.50;99.90;;;;;;5051427;28;20418;-80
2022/10/26 03:53:32;;;;;;;9.50;7.70;;;9.50;99.90;;;;;;5052337;28;20520;-79
2022/10/26 03:56:00;;;;;;;8.00;7.10;;;9.40;99.90;;;;;;5050864;28;20768;-80
2022/10/26 03:58:27;;;;;;;13.00;7.87;;;9.50;99.90;;;;;;5049051;28;20432;-79
2022/10/26 04:00:54;;;;;;;9.80;8.67;;;9.50;99.90;;;;;;5050782;28;20425;-79
2022/10/26 04:03:20;;;;;;;10.77;7.45;;;9.50;99.90;;;;;;5050125;28;20424;-78
2022/10/26 04:05:47;;;;;;;12.80;8.70;;;9.40;99.90;;;;;;5047304;28;20216;-80
2022/10/26 04:08:15;;;;;;;10.23;8.90;;;9.40;99.90;;;;;;5046656;28;20452;-81
2022/10/26 04:10:41;;;;;;;7.90;7.10;;;9.30;99.90;;;;;;5045572;28;20429;-80
2022/10/26 04:13:11;;;;;;;13.03;8.13;;;9.40;99.90;;;;;;5045975;28;20474;-80
2022/10/26 04:15:38;;;;;;;11.13;6.30;;;9.30;99.90;;;;;;5046930;28;20428;-80
2022/10/26 04:18:05;;;;;;;10.17;8.33;;;;;;;;;;5048795;28;20446;-79
2022/10/26 04:20:33;;;;;;;7.83;6.97;;;9.60;99.90;;;;;;5051550;28;20421;-79
2022/10/26 04:23:02;;;;;;;12.67;7.70;;;9.40;99.90;;;;;;5049826;28;20494;-79
2022/10/26 04:25:29;;;;;;;9.93;7.73;;;9.40;99.90;;;;;;5047139;28;20450;-79
2022/10/26 04:27:55;;;;;;;10.50;7.70;;;9.40;99.90;;;;;;5047647;28;20421;-82
2022/10/26 04:30:24;;;;;;;8.10;7.10;;;9.40;99.90;;;;;;5048369;28;20440;-78
2022/10/26 04:32:51;;;;;;;11.33;7.50;;;9.30;99.90;;;;;;5050267;28;20433;-78
2022/10/26 04:35:17;;;;;;;7.90;7.10;;;9.30;99.90;;;;;;5049606;28;20454;-80
2022/10/26 04:37:44;;;;;;;8.10;6.87;;;9.30;99.90;;;;;;5046657;28;20817;-81
2022/10/26 04:40:12;;;;;;;19.03;10.03;;;9.20;99.90;;;;;;5045546;28;20507;-81
2022/10/26 04:42:42;;;;;;;10.10;7.80;;;9.10;99.90;;;;;;5046985;28;20443;-83
2022/10/26 04:45:09;;;;;;;7.87;6.97;;;9.10;99.90;;;;;;5046221;28;20421;-81
2022/10/26 04:47:38;;;;;;;12.43;7.23;;;9.10;99.90;;;;;;5044973;28;20489;-81
2022/10/26 04:50:05;;;;;;;10.10;7.60;;;9.10;99.90;;;;;;5046029;28;20469;-81
2022/10/26 04:52:32;;;;;;;11.80;7.90;;;9.10;99.90;;;;;;5046156;28;20478;-81
2022/10/26 04:54:59;;;;;;;12.90;7.63;;;9.20;99.90;;;;;;5045862;28;20425;-80
2022/10/26 04:57:25;;;;;;;7.50;6.80;;;9.10;99.90;;;;;;5046102;28;20446;-81
2022/10/26 04:59:52;;;;;;;10.50;8.87;;;9.10;99.90;;;;;;5040267;28;20446;-80
2022/10/26 05:02:19;;;;;;;13.73;8.50;;;9.00;99.90;;;;;;5047594;28;20446;-80
2022/10/26 05:04:48;;;;;;;12.40;7.87;;;9.00;99.90;;;;;;5047310;28;20451;-81
2022/10/26 05:07:14;;;;;;;13.90;8.37;;;9.00;99.90;;;;;;5047201;28;20475;-81
2022/10/26 05:09:41;;;;;;;10.40;7.10;;;9.10;99.90;;;;;;5047375;28;20471;-81
2022/10/26 05:12:08;;;;;;;10.27;8.07;;;9.10;99.90;;;;;;5046718;28;20469;-81
2022/10/26 05:14:34;;;;;;;10.90;8.37;;;9.10;99.90;;;;;;5047974;28;20451;-79
2022/10/26 05:17:01;;;;;;;11.50;8.27;;;9.10;99.90;;;;;;5051131;28;20442;-79
2022/10/26 05:19:28;;;;;;;10.47;7.40;;;8.90;99.90;;;;;;5049845;28;20482;-79
2022/10/26 05:21:56;;;;;;;16.90;7.47;;;9.00;99.90;;;;;;5049268;28;20441;-79
2022/10/26 05:24:22;;;;;;;10.97;8.07;;;9.10;99.90;;;;;;5048441;28;20414;-80
2022/10/26 05:26:49;;;;;;;11.50;7.50;;;9.00;99.90;;;;;;5046701;28;20457;-81
2022/10/26 05:29:16;;;;;;;14.87;7.83;;;9.00;99.90;;;;;;5046240;28;20442;-81
2022/10/26 05:31:42;;;;;;;11.30;7.47;;;10.20;99.90;;;;;;5045855;28;20443;-80
2022/10/26 05:34:10;;;;;;;11.00;8.10;;;9.00;99.90;;;;;;5025987;28;20418;-81
2022/10/26 05:36:37;;;;;;;7.23;6.50;;;8.90;99.90;;;;;;5025988;28;20422;-81
2022/10/26 05:39:05;;;;;;;10.40;7.70;;;8.80;99.90;;;;;;5025188;28;20454;-80
2022/10/26 05:41:32;;;;;;;7.80;7.00;;;8.60;99.90;;;;;;5025301;28;20457;-81
2022/10/26 05:43:59;;;;;;;9.90;8.30;;;8.80;99.90;;;;;;5026561;28;20440;-79
2022/10/26 05:46:25;;;;;;;9.30;8.30;;;8.80;99.90;;;;;;5030131;28;20469;-80
2022/10/26 05:48:52;;;;;;;17.50;11.43;;;8.90;99.90;;;;;;5030544;28;20428;-79
2022/10/26 05:51:19;;;;;;;13.93;10.70;;;8.80;99.90;;;;;;5027155;28;20509;-81
2022/10/26 05:53:45;;;;;;;12.97;9.07;;;8.80;99.90;;;;;;5025866;28;20446;-80
2022/10/26 05:56:20;;;;;;;16.00;10.13;;;8.80;99.90;;;;;;5025994;28;20465;-80
2022/10/26 05:58:47;;;;;;;17.63;10.40;;;8.70;99.90;;;;;;5028018;28;20446;-79
2022/10/26 06:01:27;;;;;;;15.27;8.93;;;8.60;99.90;;;;;;5027446;28;20458;-82
2022/10/26 06:04:16;;;;;;;22.27;13.00;;;8.60;99.90;;;;;;5025677;28;20425;-80
2022/10/26 06:06:47;;;;;;;23.27;12.70;;;8.60;99.90;;;;;;5025829;28;20493;-81
2022/10/26 06:09:14;;;;;;;20.80;12.25;;;8.60;99.90;;;;;;5026017;28;20828;-81
2022/10/26 06:11:43;;;;;;;22.77;12.50;;;8.50;99.90;;;;;;5025214;28;20248;-80
2022/10/26 06:14:10;;;;;;;28.33;12.67;;;8.60;99.90;;;;;;5024894;28;20422;-80
2022/10/26 06:16:46;;;;;;;21.13;14.10;;;8.70;99.90;;;;;;5024840;28;20424;-81
2022/10/26 06:19:25;;;;;;;20.87;12.50;;;8.70;99.90;;;;;;5026747;28;20432;-81
2022/10/26 06:27:32;;;;;;;16.60;10.17;;;8.70;99.90;;;;;;1413731;26;20557;-86
2022/10/26 06:30:02;;;;;;;20.43;11.37;;;8.70;99.90;;;;;;5026208;28;20409;-78
2022/10/26 06:32:29;;;;;;;14.07;10.25;;;8.70;99.90;;;;;;5016040;28;20463;-80
2022/10/26 06:35:21;;;;;;;13.90;10.50;;;8.70;99.90;;;;;;5019638;28;20208;-80
2022/10/26 06:37:49;;;;;;;18.80;12.00;;;8.80;99.90;;;;;;5021374;28;20435;-80
2022/10/26 06:40:17;;;;;;;18.97;12.30;;;8.80;99.90;;;;;;5021881;28;20825;-82
2022/10/26 06:42:45;;;;;;;16.08;11.00;;;8.40;99.90;;;;;;5032797;28;20438;-80
2022/10/26 06:45:14;;;;;;;16.52;9.13;;;8.80;99.90;;;;;;5036388;28;20200;-80
2022/10/26 06:47:46;;;;;;;80.50;42.63;;;8.80;99.90;;;;;;5032986;28;20224;-78
2022/10/26 06:50:27;;;;;;;16.50;11.32;;;8.80;99.90;;;;;;5034631;28;20417;-82
2022/10/26 06:53:01;;;;;;;20.00;13.23;;;8.70;99.90;;;;;;5034955;28;20228;-79
2022/10/26 06:55:36;;;;;;;21.63;12.73;;;8.70;99.90;;;;;;5035701;28;20414;-81
2022/10/26 06:58:05;;;;;;;16.10;11.83;;;8.80;99.90;;;;;;5028332;28;20869;-83
2022/10/26 07:00:32;;;;;;;17.27;12.63;;;8.80;99.90;;;;;;5023266;28;20444;-81
2022/10/26 07:02:59;;;;;;;13.53;10.40;;;9.00;99.90;;;;;;5021215;28;20475;-81
2022/10/26 07:05:25;;;;;;;17.70;10.60;;;8.90;99.90;;;;;;5020697;28;20832;-81
2022/10/26 07:07:52;;;;;;;14.40;10.17;;;8.90;99.90;;;;;;5020893;28;20457;-81
2022/10/26 07:10:19;;;;;;;15.18;10.82;;;9.00;99.90;;;;;;5021620;28;20769;-82
2022/10/26 07:12:45;;;;;;;25.23;13.07;;;9.00;99.90;;;;;;5020787;28;20228;-82
2022/10/26 07:15:13;;;;;;;13.53;10.43;;;9.10;99.90;;;;;;5020762;28;20414;-82
2022/10/26 07:17:44;;;;;;;14.23;10.20;;;9.10;99.90;;;;;;5020875;28;20433;-82
2022/10/26 07:20:11;;;;;;;12.80;10.13;;;9.10;99.90;;;;;;5020912;28;20450;-82
2022/10/26 07:22:38;;;;;;;11.13;9.93;;;9.00;99.90;;;;;;5020715;28;20449;-81
2022/10/26 07:25:06;;;;;;;15.30;11.03;;;9.10;99.90;;;;;;5021159;28;20511;-82
2022/10/26 07:27:33;;;;;;;15.53;11.00;;;9.20;99.90;;;;;;5020325;28;20941;-82
2022/10/26 07:30:00;;;;;;;14.93;9.37;;;9.20;99.90;;;;;;5020025;28;20916;-81
2022/10/26 07:32:29;;;;;;;14.03;10.27;;;9.20;99.90;;;;;;5027444;28;20446;-80
2022/10/26 07:34:55;;;;;;;16.57;10.27;;;9.20;99.90;;;;;;5037183;28;20439;-81
2022/10/26 07:37:22;;;;;;;14.53;9.97;;;9.30;99.90;;;;;;5037387;28;20406;-81
2022/10/26 07:39:49;;;;;;;13.73;10.43;;;9.40;99.90;;;;;;5036383;28;20467;-81
2022/10/26 07:42:15;;;;;;;26.87;11.37;;;9.40;99.90;;;;;;5023600;28;20517;-81
2022/10/26 07:44:42;;;;;;;16.60;12.17;;;9.60;99.90;;;;;;5020290;28;20494;-81
2022/10/26 07:47:09;;;;;;;15.33;10.83;;;9.60;99.90;;;;;;5020501;28;20496;-83
2022/10/26 07:49:37;;;;;;;17.97;10.90;;;9.70;99.90;;;;;;5020687;28;20440;-81
2022/10/26 07:52:04;;;;;;;25.97;14.43;;;9.60;99.90;;;;;;5017760;28;20447;-81
2022/10/26 07:54:31;;;;;;;17.70;12.80;;;9.80;99.90;;;;;;5018014;28;20426;-81
2022/10/26 07:56:58;;;;;;;17.43;12.30;;;9.80;99.90;;;;;;5017923;28;20447;-82
2022/10/26 07:59:25;;;;;;;18.90;11.20;;;9.80;99.90;;;;;;5018334;28;20523;-82
2022/10/26 08:01:52;;;;;;;18.70;12.00;;;9.80;99.90;;;;;;5018554;28;20426;-82
2022/10/26 08:04:19;;;;;;;15.90;11.57;;;10.00;99.90;;;;;;5018551;28;20471;-83
2022/10/26 08:06:47;;;;;;;16.87;11.73;;;10.00;99.90;;;;;;5023246;28;20502;-82
2022/10/26 08:09:14;;;;;;;16.43;10.70;;;10.10;99.90;;;;;;5029648;28;20478;-82
2022/10/26 08:11:41;;;;;;;19.10;11.80;;;10.20;99.90;;;;;;5033833;28;20447;-82
2022/10/26 08:14:07;;;;;;;19.67;11.20;;;10.20;99.90;;;;;;5034055;28;20469;-83
2022/10/26 08:16:34;;;;;;;17.17;11.10;;;10.40;99.90;;;;;;5024708;28;20458;-82
2022/10/26 08:19:01;;;;;;;15.13;11.20;;;10.40;99.90;;;;;;5020520;28;20470;-82
2022/10/26 08:21:27;;;;;;;16.60;11.77;;;10.50;99.90;;;;;;5020440;28;20448;-82
2022/10/26 08:23:58;;;;;;;13.97;11.43;;;10.60;99.90;;;;;;5019881;28;20471;-83
2022/10/26 08:26:25;;;;;;;16.10;11.73;;;10.60;99.90;;;;;;5019951;28;20443;-82
2022/10/26 08:28:51;;;;;;;13.10;10.17;;;10.60;99.90;;;;;;5019632;28;21009;-82
2022/10/26 08:31:18;;;;;;;14.30;10.17;;;10.70;99.90;;;;;;5019405;28;20441;-82
2022/10/26 08:33:45;;;;;;;12.93;10.43;;;10.70;99.90;;;;;;5020204;28;20475;-82
2022/10/26 08:36:13;;;;;;;15.70;11.50;;;10.80;99.90;;;;;;5020387;28;20451;-81
2022/10/26 08:38:40;;;;;;;12.30;10.30;;;10.80;99.90;;;;;;5019521;28;20434;-82
2022/10/26 08:41:09;;;;;;;16.60;11.70;;;10.90;99.90;;;;;;5019392;28;20456;-82
2022/10/26 08:43:40;;;;;;;20.63;13.63;;;11.00;99.90;;;;;;5018977;28;20479;-82
2022/10/26 08:46:13;;;;;;;15.00;12.23;;;11.10;99.90;;;;;;5029692;28;20435;-81
2022/10/26 08:48:43;;;;;;;12.33;11.03;;;11.20;99.90;;;;;;5030319;28;20468;-83
2022/10/26 08:51:14;;;;;;;15.37;11.50;;;11.30;99.90;;;;;;5020566;28;20458;-82
2022/10/26 08:53:43;;;;;;;20.60;10.50;;;11.40;99.90;;;;;;5020359;28;20859;-81
2022/10/26 08:56:17;;;;;;;11.70;10.40;;;11.50;99.90;;;;;;5019679;28;20455;-82
2022/10/26 08:58:49;;;;;;;20.27;10.73;;;11.60;99.90;;;;;;5019217;28;20424;-81
2022/10/26 09:01:17;;;;;;;17.50;11.90;;;11.50;99.90;;;;;;5019506;28;20439;-82
2022/10/26 09:03:44;;;;;;;15.33;11.10;;;11.80;99.90;;;;;;5019719;28;20445;-81
2022/10/26 09:06:19;;;;;;;14.33;11.40;;;11.90;99.90;;;;;;5019592;28;20451;-82
2022/10/26 09:08:56;;;;;;;15.70;11.70;;;11.90;99.90;;;;;;5019584;28;20535;-82
2022/10/26 09:11:46;;;;;;;17.07;12.00;;;12.10;99.90;;;;;;5019989;28;20429;-84
2022/10/26 09:14:18;;;;;;;15.77;12.57;;;12.20;99.90;;;;;;5028200;28;20442;-83
2022/10/26 09:16:54;;;;;;;16.97;13.80;;;12.20;99.90;;;;;;5020326;28;20424;-82
2022/10/26 09:19:37;;;;;;;15.30;12.93;;;12.30;99.90;;;;;;5019539;28;20489;-83
2022/10/26 09:22:11;;;;;;;20.00;14.57;;;12.10;99.90;;;;;;5019134;28;20402;-82
2022/10/26 09:24:42;;;;;;;19.03;12.53;;;12.40;99.90;;;;;;5019209;28;20431;-83
2022/10/26 09:27:18;;;;;;;15.30;10.47;;;12.40;99.90;;;;;;5017859;28;20467;-82
2022/10/26 09:29:45;;;;;;;16.30;10.27;;;12.60;99.90;;;;;;5019848;28;20428;-82
2022/10/26 09:32:18;;;;;;;13.53;9.53;;;12.80;99.90;;;;;;5021965;28;20487;-82
2022/10/26 09:34:49;;;;;;;22.93;11.53;;;12.80;99.90;;;;;;5021517;28;20899;-82
2022/10/26 09:37:20;;;;;;;14.43;9.37;;;12.90;99.90;;;;;;5025347;28;20471;-82
2022/10/26 09:39:57;;;;;;;12.23;9.90;;;12.90;99.90;;;;;;5032258;28;20426;-82
2022/10/26 09:42:33;;;;;;;15.90;9.23;;;13.00;99.90;;;;;;5031056;28;20437;-81
2022/10/26 09:45:06;;;;;;;8.93;8.03;;;13.10;99.90;;;;;;5027032;28;20442;-82
2022/10/26 09:47:36;;;;;;;16.57;9.80;;;13.00;99.90;;;;;;5023410;28;20467;-83
2022/10/26 09:50:17;;;;;;;10.23;8.70;;;13.20;99.90;;;;;;5022393;28;20964;-83
2022/10/26 09:52:43;;;;;;;15.90;9.13;;;13.30;99.90;;;;;;5023103;28;20463;-83
2022/10/26 09:55:11;;;;;;;11.87;8.33;;;13.30;99.90;;;;;;5020629;28;20887;-84
2022/10/26 09:57:42;;;;;;;11.53;8.93;;;13.40;99.90;;;;;;5018680;28;20498;-83
2022/10/26 10:00:14;;;;;;;12.00;7.90;;;13.40;99.90;;;;;;5020059;28;20432;-82
2022/10/26 10:02:43;;;;;;;13.97;9.23;;;13.50;99.90;;;;;;5020860;28;20529;-84
2022/10/26 10:05:37;;;;;;;14.50;9.07;;;13.50;99.90;;;;;;5021787;28;20470;-82
2022/10/26 10:08:14;;;;;;;12.10;10.10;;;13.70;99.90;;;;;;4987843;28;20479;-82
2022/10/26 10:10:57;;;;;;;10.77;9.63;;;13.70;99.90;;;;;;5036747;28;20427;-82
2022/10/26 10:13:27;;;;;;;10.47;7.63;;;13.80;99.90;;;;;;5035945;28;20458;-82
2022/10/26 10:15:57;;;;;;;9.73;7.67;;;13.80;99.90;;;;;;5035568;28;20446;-82
2022/10/26 10:18:24;;;;;;;9.40;6.87;;;13.90;99.90;;;;;;5035307;28;20421;-82
2022/10/26 10:20:54;;;;;;;8.37;7.13;;;14.00;99.90;;;;;;5039007;28;20458;-83
2022/10/26 10:23:32;;;;;;;9.57;6.73;;;13.70;99.90;;;;;;5039459;28;20484;-82
2022/10/26 10:26:05;;;;;;;8.30;7.17;;;14.10;99.90;;;;;;5040528;28;20386;-82
2022/10/26 10:28:34;;;;;;;8.20;6.53;;;14.10;99.90;;;;;;5036199;28;20490;-82
2022/10/26 10:31:04;;;;;;;6.80;5.50;;;14.20;99.90;;;;;;5027673;28;20494;-82
2022/10/26 10:33:36;;;;;;;5.90;5.40;;;14.30;99.90;;;;;;5024312;28;20475;-83
2022/10/26 10:36:05;;;;;;;5.97;4.83;;;14.30;99.90;;;;;;5023719;28;20451;-83
2022/10/26 10:38:37;;;;;;;7.23;5.53;;;14.40;99.90;;;;;;5023548;28;20451;-83
2022/10/26 10:41:05;;;;;;;10.87;5.20;;;14.50;99.90;;;;;;5024115;28;20435;-82
2022/10/26 10:43:33;;;;;;;5.60;4.90;;;14.50;99.90;;;;;;5023419;28;20474;-83
2022/10/26 10:46:00;;;;;;;5.40;4.27;;;14.80;99.90;;;;;;5023130;28;20448;-82
2022/10/26 10:48:28;;;;;;;5.80;4.70;;;14.60;99.90;;;;;;5023555;28;20494;-83
2022/10/26 10:50:57;;;;;;;5.47;4.93;;;14.70;99.90;;;;;;5022871;28;20451;-83
2022/10/26 10:53:34;;;;;;;9.13;4.63;;;14.70;99.90;;;;;;5024897;28;20467;-81
2022/10/26 10:56:16;;;;;;;5.17;4.40;;;14.70;99.90;;;;;;5038783;28;20408;-82
2022/10/26 10:58:56;;;;;;;9.63;4.33;;;14.80;99.90;;;;;;5039712;28;20428;-83
2022/10/26 11:01:27;;;;;;;6.43;4.90;;;14.80;99.90;;;;;;5037799;28;20403;-82
2022/10/26 11:04:16;;;;;;;4.40;3.97;;;14.90;99.90;;;;;;5028610;28;20464;-83
2022/10/26 11:06:44;;;;;;;5.63;4.43;;;14.90;99.90;;;;;;5032281;28;20438;-83
2022/10/26 11:09:13;;;;;;;6.43;4.80;;;15.00;99.90;;;;;;5034359;28;20494;-82
2022/10/26 11:11:45;;;;;;;5.27;4.67;;;15.00;99.90;;;;;;5032435;28;20942;-82
2022/10/26 11:14:18;;;;;;;5.77;4.30;;;15.10;99.90;;;;;;5030319;28;21004;-83
2022/10/26 11:16:48;;;;;;;4.30;3.90;;;15.10;99.90;;;;;;5023878;28;20407;-83
2022/10/26 11:19:19;;;;;;;7.87;4.53;;;15.20;99.90;;;;;;5021416;28;20439;-83
2022/10/26 11:21:50;;;;;;;6.40;4.77;;;15.20;99.90;;;;;;5023499;28;20412;-83
2022/10/26 11:24:22;;;;;;;6.80;4.33;;;15.20;99.90;;;;;;5021071;28;20467;-82
2022/10/26 11:26:54;;;;;;;5.97;3.77;;;15.30;99.90;;;;;;5022669;28;20439;-82
2022/10/26 11:29:33;;;;;;;3.97;3.30;;;15.30;99.90;;;;;;5023220;28;20882;-83
2022/10/26 11:32:07;;;;;;;7.00;4.77;;;15.30;99.90;;;;;;5022989;28;20428;-82
2022/10/26 11:34:40;;;;;;;7.50;4.07;;;15.40;99.90;;;;;;5022079;28;20474;-83
2022/10/26 11:37:15;;;;;;;4.43;4.00;;;15.50;99.90;;;;;;5022878;28;20440;-82
2022/10/26 11:39:45;;;;;;;3.80;3.50;;;15.40;99.90;;;;;;5021294;28;20435;-82
2022/10/26 11:42:23;;;;;;;6.20;3.90;;;15.30;99.90;;;;;;5030477;28;20443;-81
2022/10/26 11:44:57;;;;;;;5.23;4.67;;;15.60;99.90;;;;;;5038872;28;20435;-82
2022/10/26 11:47:33;;;;;;;6.40;3.67;;;15.60;99.90;;;;;;5034927;28;20450;-82
2022/10/26 11:50:06;;;;;;;3.50;3.20;;;15.70;99.90;;;;;;5022182;28;20574;-82
2022/10/26 11:52:40;;;;;;;8.40;4.30;;;15.70;99.90;;;;;;5022481;28;20471;-82
2022/10/26 11:55:10;;;;;;;4.53;3.60;;;15.70;99.90;;;;;;5020968;28;20439;-82
2022/10/26 11:57:38;;;;;;;3.70;3.20;;;15.80;99.90;;;;;;5021045;28;20859;-82
2022/10/26 12:00:14;;;;;;;5.70;3.30;;;15.80;99.90;;;;;;5020525;28;20977;-82
2022/10/26 12:02:42;;;;;;;3.80;3.50;;;15.80;99.90;;;;;;5018284;28;20997;-82
2022/10/26 12:05:19;;;;;;;3.33;3.03;;;15.90;99.90;;;;;;5018191;28;20930;-82
2022/10/26 12:07:49;;;;;;;4.30;3.30;;;16.30;99.90;;;;;;5018977;28;20442;-82
2022/10/26 12:10:25;;;;;;;5.20;3.00;;;15.70;99.90;;;;;;5018775;28;20494;-82
2022/10/26 12:12:59;;;;;;;5.03;4.63;;;16.00;99.90;;;;;;5020045;28;20471;-82
2022/10/26 12:15:30;;;;;;;3.83;3.50;;;16.00;99.90;;;;;;5021937;28;20436;-82
2022/10/26 12:18:08;;;;;;;3.30;2.90;;;16.00;99.90;;;;;;5022363;28;20442;-82
2022/10/26 12:21:02;;;;;;;7.17;4.60;;;16.10;99.90;;;;;;5019434;28;20941;-82
2022/10/26 12:23:31;;;;;;;2.97;2.40;;;16.10;99.90;;;;;;5019737;28;20502;-82
2022/10/26 12:26:46;;;;;;;3.53;2.87;;;16.10;99.90;;;;;;5057083;22;20494;-79
2022/10/26 12:29:28;;;;;;;6.43;3.37;;;16.10;99.90;;;;;;5050929;28;20474;-79
2022/10/26 12:31:57;;;;;;;4.43;3.00;;;16.10;99.90;;;;;;5049240;28;20496;-80
2022/10/26 12:34:45;;;;;;;5.50;2.50;;;16.20;99.90;;;;;;5049054;28;20421;-80
2022/10/26 12:37:24;;;;;;;4.93;3.70;;;16.30;99.90;;;;;;5049142;28;20462;-79
2022/10/26 12:39:51;;;;;;;2.73;2.47;;;16.30;99.90;;;;;;5049318;28;20427;-81
2022/10/26 12:42:29;;;;;;;5.30;2.80;;;16.20;99.90;;;;;;5047875;28;20442;-79
2022/10/26 12:45:16;;;;;;;3.30;3.00;;;15.90;99.90;;;;;;5044747;28;20442;-81
2022/10/26 12:48:23;;;;;;;3.27;2.97;;;16.30;99.90;;;;;;5046709;28;20435;-81
2022/10/26 12:50:50;;;;;;;5.37;3.00;;;16.20;99.90;;;;;;5018244;28;20500;-80
2022/10/26 12:53:20;;;;;;;7.47;2.67;;;16.20;99.90;;;;;;5047669;28;20451;-81
2022/10/26 12:56:05;;;;;;;3.60;3.17;;;16.30;99.90;;;;;;5048916;28;20462;-81
2022/10/26 12:58:59;;;;;;;6.43;4.30;;;16.30;99.90;;;;;;5044665;28;20438;-81
2022/10/26 13:01:50;;;;;;;4.90;3.27;;;16.30;99.90;;;;;;5047666;28;20435;-81
2022/10/26 13:04:46;;;;;;;3.90;3.20;;;16.60;99.90;;;;;;5047599;28;20439;-81
2022/10/26 13:07:21;;;;;;;7.53;2.90;;;16.40;99.90;;;;;;5023338;28;20462;-81
2022/10/26 13:09:56;;;;;;;2.80;2.50;;;16.50;85.20;;;;;;5052906;28;20553;-82
2022/10/26 13:12:23;;;;;;;2.63;2.30;;;16.50;99.90;;;;;;5049584;28;20434;-81
2022/10/26 13:15:01;;;;;;;4.80;2.50;;;16.50;99.90;;;;;;5050532;28;20453;-81
2022/10/26 13:17:31;;;;;;;3.53;2.47;;;16.40;99.90;;;;;;5050385;28;20434;-81
2022/10/26 13:20:13;;;;;;;4.50;3.23;;;16.50;99.90;;;;;;5048929;28;20446;-81
2022/10/26 13:22:46;;;;;;;3.30;3.00;;;16.50;99.90;;;;;;5048709;28;20438;-81
2022/10/26 13:25:23;;;;;;;4.03;2.63;;;16.50;99.90;;;;;;5047861;28;20467;-80
2022/10/26 13:27:59;;;;;;;3.10;2.80;;;16.60;99.90;;;;;;5044898;28;20450;-81
2022/10/26 13:30:45;;;;;;;5.23;2.90;;;16.50;99.90;;;;;;5044906;28;20462;-82